sensor_id;sensor_type;location;lat;lon;timestamp;temperature;humidity
41922;DHT22;27609;51.002;5.354;2022-08-19T00:01:06;19.30;99.90
41922;DHT22;27609;51.002;5.354;2022-08-19T00:03:34;19.30;99.90
41922;DHT22;27609;51.002;5.354;2022-08-19T00:06:03;19.20;99.90
41922;DHT22;27609;51.002;5.354;2022-08-19T00:08:31;19.20;99.90
41922;DHT22;27609;51.002;5.354;2022-08-19T00:11:09;19.20;99.90
41922;DHT22;27609;51.002;5.354;2022-08-19T00:13:38;19.30;99.90
41922;DHT22;27609;51.002;5.354;2022-08-19T00:16:14;19.30;99.90
41922;DHT22;27609;51.002;5.354;2022-08-19T00:18:43;19.30;99.90
41922;DHT22;27609;51.002;5.354;2022-08-19T00:21:30;19.30;99.90
41922;DHT22;27609;51.002;5.354;2022-08-19T00:24:01;19.20;99.90
41922;DHT22;27609;51.002;5.354;2022-08-19T00:26:30;19.10;99.90
41922;DHT22;27609;51.002;5.354;2022-08-19T00:28:56;19.10;99.90
41922;DHT22;27609;51.002;5.354;2022-08-19T00:31:24;19.10;99.90
41922;DHT22;27609;51.002;5.354;2022-08-19T00:34:01;19.00;99.90
41922;DHT22;27609;51.002;5.354;2022-08-19T00:36:30;18.80;99.90
41922;DHT22;27609;51.002;5.354;2022-08-19T00:38:58;18.80;99.90
41922;DHT22;27609;51.002;5.354;2022-08-19T00:41:25;18.90;99.90
41922;DHT22;27609;51.002;5.354;2022-08-19T00:46:57;18.80;99.90
41922;DHT22;27609;51.002;5.354;2022-08-19T00:49:45;18.90;99.90
41922;DHT22;27609;51.002;5.354;2022-08-19T00:52:37;18.90;99.90
41922;DHT22;27609;51.002;5.354;2022-08-19T00:55:07;18.80;99.90
41922;DHT22;27609;51.002;5.354;2022-08-19T00:57:40;18.90;99.90
41922;DHT22;27609;51.002;5.354;2022-08-19T01:00:20;18.90;99.90
41922;DHT22;27609;51.002;5.354;2022-08-19T01:02:47;18.90;99.90
41922;DHT22;27609;51.002;5.354;2022-08-19T01:05:24;18.80;99.90
41922;DHT22;27609;51.002;5.354;2022-08-19T01:07:53;18.70;99.90
41922;DHT22;27609;51.002;5.354;2022-08-19T01:10:24;18.70;99.90
41922;DHT22;27609;51.002;5.354;2022-08-19T01:12:54;18.60;99.90
41922;DHT22;27609;51.002;5.354;2022-08-19T01:15:26;18.70;99.90
41922;DHT22;27609;51.002;5.354;2022-08-19T01:18:11;18.70;99.90
41922;DHT22;27609;51.002;5.354;2022-08-19T01:20:40;18.70;99.90
41922;DHT22;27609;51.002;5.354;2022-08-19T01:23:11;18.70;99.90
41922;DHT22;27609;51.002;5.354;2022-08-19T01:25:49;18.70;99.90
41922;DHT22;27609;51.002;5.354;2022-08-19T01:28:22;18.70;99.90
41922;DHT22;27609;51.002;5.354;2022-08-19T01:30:50;18.60;99.90
41922;DHT22;27609;51.002;5.354;2022-08-19T01:33:16;18.60;99.90
41922;DHT22;27609;51.002;5.354;2022-08-19T01:35:45;18.60;99.90
41922;DHT22;27609;51.002;5.354;2022-08-19T01:38:21;18.60;99.90
41922;DHT22;27609;51.002;5.354;2022-08-19T01:40:58;18.60;99.90
41922;DHT22;27609;51.002;5.354;2022-08-19T01:43:27;18.60;99.90
41922;DHT22;27609;51.002;5.354;2022-08-19T01:45:55;18.60;99.90
41922;DHT22;27609;51.002;5.354;2022-08-19T01:48:24;18.60;99.90
41922;DHT22;27609;51.002;5.354;2022-08-19T01:50:52;18.50;99.90
41922;DHT22;27609;51.002;5.354;2022-08-19T01:53:20;18.60;99.90
41922;DHT22;27609;51.002;5.354;2022-08-19T01:55:53;18.50;99.90
41922;DHT22;27609;51.002;5.354;2022-08-19T01:58:26;18.30;99.90
41922;DHT22;27609;51.002;5.354;2022-08-19T02:01:13;18.30;99.90
41922;DHT22;27609;51.002;5.354;2022-08-19T02:03:49;18.30;99.90
41922;DHT22;27609;51.002;5.354;2022-08-19T02:06:37;18.30;99.90
41922;DHT22;27609;51.002;5.354;2022-08-19T02:09:05;18.30;99.90
41922;DHT22;27609;51.002;5.354;2022-08-19T02:11:36;18.30;99.90
41922;DHT22;27609;51.002;5.354;2022-08-19T02:14:08;18.30;99.90
41922;DHT22;27609;51.002;5.354;2022-08-19T02:16:36;18.30;99.90
41922;DHT22;27609;51.002;5.354;2022-08-19T02:19:05;18.20;99.90
41922;DHT22;27609;51.002;5.354;2022-08-19T02:21:36;18.20;99.90
41922;DHT22;27609;51.002;5.354;2022-08-19T02:24:02;18.10;99.90
41922;DHT22;27609;51.002;5.354;2022-08-19T02:26:28;18.10;99.90
41922;DHT22;27609;51.002;5.354;2022-08-19T02:28:58;18.10;99.90
41922;DHT22;27609;51.002;5.354;2022-08-19T02:31:26;18.10;99.90
41922;DHT22;27609;51.002;5.354;2022-08-19T02:33:56;18.00;99.90
41922;DHT22;27609;51.002;5.354;2022-08-19T02:36:22;17.90;99.90
41922;DHT22;27609;51.002;5.354;2022-08-19T02:38:51;18.10;99.90
41922;DHT22;27609;51.002;5.354;2022-08-19T02:41:24;18.20;99.90
41922;DHT22;27609;51.002;5.354;2022-08-19T02:43:53;18.20;99.90
41922;DHT22;27609;51.002;5.354;2022-08-19T02:46:22;18.20;99.90
41922;DHT22;27609;51.002;5.354;2022-08-19T02:48:53;18.10;99.90
41922;DHT22;27609;51.002;5.354;2022-08-19T02:51:29;18.20;99.90
41922;DHT22;27609;51.002;5.354;2022-08-19T02:54:00;18.20;99.90
41922;DHT22;27609;51.002;5.354;2022-08-19T02:56:40;18.20;99.90
41922;DHT22;27609;51.002;5.354;2022-08-19T02:59:07;18.20;99.90
41922;DHT22;27609;51.002;5.354;2022-08-19T03:01:34;18.20;99.90
41922;DHT22;27609;51.002;5.354;2022-08-19T03:04:08;18.30;99.90
41922;DHT22;27609;51.002;5.354;2022-08-19T03:06:45;18.30;99.90
41922;DHT22;27609;51.002;5.354;2022-08-19T03:09:15;18.30;99.90
41922;DHT22;27609;51.002;5.354;2022-08-19T03:11:43;18.20;99.90
41922;DHT22;27609;51.002;5.354;2022-08-19T03:14:09;18.20;99.90
41922;DHT22;27609;51.002;5.354;2022-08-19T03:16:44;18.20;99.90
41922;DHT22;27609;51.002;5.354;2022-08-19T03:19:19;18.20;99.90
41922;DHT22;27609;51.002;5.354;2022-08-19T03:21:48;18.10;99.90
41922;DHT22;27609;51.002;5.354;2022-08-19T03:24:15;18.20;99.90
41922;DHT22;27609;51.002;5.354;2022-08-19T03:26:56;18.10;99.90
41922;DHT22;27609;51.002;5.354;2022-08-19T03:29:23;18.10;99.90
41922;DHT22;27609;51.002;5.354;2022-08-19T03:31:51;18.10;99.90
41922;DHT22;27609;51.002;5.354;2022-08-19T03:34:28;18.10;99.90
41922;DHT22;27609;51.002;5.354;2022-08-19T03:37:05;18.10;99.90
41922;DHT22;27609;51.002;5.354;2022-08-19T03:39:31;18.10;99.90
41922;DHT22;27609;51.002;5.354;2022-08-19T03:41:57;18.00;99.90
41922;DHT22;27609;51.002;5.354;2022-08-19T03:44:28;18.00;99.90
41922;DHT22;27609;51.002;5.354;2022-08-19T03:46:59;17.90;99.90
41922;DHT22;27609;51.002;5.354;2022-08-19T03:49:28;17.90;99.90
41922;DHT22;27609;51.002;5.354;2022-08-19T03:51:58;17.90;99.90
41922;DHT22;27609;51.002;5.354;2022-08-19T03:54:35;17.90;99.90
41922;DHT22;27609;51.002;5.354;2022-08-19T03:57:10;17.90;99.90
41922;DHT22;27609;51.002;5.354;2022-08-19T03:59:44;17.90;99.90
41922;DHT22;27609;51.002;5.354;2022-08-19T04:02:13;17.70;99.90
41922;DHT22;27609;51.002;5.354;2022-08-19T04:04:48;17.90;99.90
41922;DHT22;27609;51.002;5.354;2022-08-19T04:07:14;17.90;99.90
41922;DHT22;27609;51.002;5.354;2022-08-19T04:09:42;17.80;99.90
41922;DHT22;27609;51.002;5.354;2022-08-19T04:12:10;18.00;99.90
41922;DHT22;27609;51.002;5.354;2022-08-19T04:14:42;17.80;99.90
41922;DHT22;27609;51.002;5.354;2022-08-19T04:17:10;17.80;99.90
41922;DHT22;27609;51.002;5.354;2022-08-19T04:19:36;17.80;99.90
41922;DHT22;27609;51.002;5.354;2022-08-19T04:22:05;17.80;99.90
41922;DHT22;27609;51.002;5.354;2022-08-19T04:24:38;17.70;99.90
41922;DHT22;27609;51.002;5.354;2022-08-19T04:27:07;17.70;99.90
41922;DHT22;27609;51.002;5.354;2022-08-19T04:29:42;17.70;99.90
41922;DHT22;27609;51.002;5.354;2022-08-19T04:32:08;17.70;99.90
41922;DHT22;27609;51.002;5.354;2022-08-19T04:34:40;17.70;99.90
41922;DHT22;27609;51.002;5.354;2022-08-19T04:37:08;17.70;99.90
41922;DHT22;27609;51.002;5.354;2022-08-19T04:39:38;17.70;99.90
41922;DHT22;27609;51.002;5.354;2022-08-19T04:42:23;17.70;99.90
41922;DHT22;27609;51.002;5.354;2022-08-19T04:45:10;17.60;99.90
41922;DHT22;27609;51.002;5.354;2022-08-19T04:47:37;17.60;99.90
41922;DHT22;27609;51.002;5.354;2022-08-19T04:50:03;17.60;99.90
41922;DHT22;27609;51.002;5.354;2022-08-19T04:52:30;17.60;99.90
41922;DHT22;27609;51.002;5.354;2022-08-19T04:54:57;17.70;99.90
41922;DHT22;27609;51.002;5.354;2022-08-19T04:57:23;17.60;99.90
41922;DHT22;27609;51.002;5.354;2022-08-19T04:59:53;17.50;99.90
41922;DHT22;27609;51.002;5.354;2022-08-19T05:02:18;17.40;99.90
41922;DHT22;27609;51.002;5.354;2022-08-19T05:04:55;17.40;99.90
41922;DHT22;27609;51.002;5.354;2022-08-19T05:07:22;17.40;99.90
41922;DHT22;27609;51.002;5.354;2022-08-19T05:09:50;17.30;99.90
41922;DHT22;27609;51.002;5.354;2022-08-19T05:12:21;17.30;99.90
41922;DHT22;27609;51.002;5.354;2022-08-19T05:14:47;17.40;99.90
41922;DHT22;27609;51.002;5.354;2022-08-19T05:17:17;17.50;99.90
41922;DHT22;27609;51.002;5.354;2022-08-19T05:19:42;17.60;99.90
41922;DHT22;27609;51.002;5.354;2022-08-19T05:22:26;17.50;99.90
41922;DHT22;27609;51.002;5.354;2022-08-19T05:25:13;17.30;99.90
41922;DHT22;27609;51.002;5.354;2022-08-19T05:27:43;17.50;99.90
41922;DHT22;27609;51.002;5.354;2022-08-19T05:30:13;17.60;99.90
41922;DHT22;27609;51.002;5.354;2022-08-19T05:32:39;17.80;99.90
41922;DHT22;27609;51.002;5.354;2022-08-19T05:35:08;17.90;99.90
41922;DHT22;27609;51.002;5.354;2022-08-19T05:37:37;17.70;99.90
41922;DHT22;27609;51.002;5.354;2022-08-19T05:40:08;17.70;99.90
41922;DHT22;27609;51.002;5.354;2022-08-19T05:42:39;17.60;99.90
41922;DHT22;27609;51.002;5.354;2022-08-19T05:45:06;17.70;99.90
41922;DHT22;27609;51.002;5.354;2022-08-19T05:47:34;17.80;99.90
41922;DHT22;27609;51.002;5.354;2022-08-19T05:50:12;17.80;99.90
41922;DHT22;27609;51.002;5.354;2022-08-19T05:52:40;17.80;99.90
41922;DHT22;27609;51.002;5.354;2022-08-19T05:55:08;17.90;99.90
41922;DHT22;27609;51.002;5.354;2022-08-19T05:57:37;18.10;99.90
41922;DHT22;27609;51.002;5.354;2022-08-19T06:00:05;18.20;99.90
41922;DHT22;27609;51.002;5.354;2022-08-19T06:02:45;18.20;99.90
41922;DHT22;27609;51.002;5.354;2022-08-19T06:05:10;18.20;99.90
41922;DHT22;27609;51.002;5.354;2022-08-19T06:07:40;18.30;99.90
41922;DHT22;27609;51.002;5.354;2022-08-19T06:10:08;18.20;99.90
41922;DHT22;27609;51.002;5.354;2022-08-19T06:12:44;18.50;99.90
41922;DHT22;27609;51.002;5.354;2022-08-19T06:15:12;18.70;99.90
41922;DHT22;27609;51.002;5.354;2022-08-19T06:17:38;18.50;99.90
41922;DHT22;27609;51.002;5.354;2022-08-19T06:20:10;18.40;99.90
41922;DHT22;27609;51.002;5.354;2022-08-19T06:22:48;18.30;99.90
41922;DHT22;27609;51.002;5.354;2022-08-19T06:25:17;18.10;99.90
41922;DHT22;27609;51.002;5.354;2022-08-19T06:27:49;18.10;99.90
41922;DHT22;27609;51.002;5.354;2022-08-19T06:30:17;18.30;99.90
41922;DHT22;27609;51.002;5.354;2022-08-19T06:32:46;18.20;99.90
41922;DHT22;27609;51.002;5.354;2022-08-19T06:35:29;18.10;99.90
41922;DHT22;27609;51.002;5.354;2022-08-19T06:38:02;18.10;99.90
41922;DHT22;27609;51.002;5.354;2022-08-19T06:40:35;18.20;99.90
41922;DHT22;27609;51.002;5.354;2022-08-19T06:43:03;18.30;99.90
41922;DHT22;27609;51.002;5.354;2022-08-19T06:45:31;18.40;99.90
41922;DHT22;27609;51.002;5.354;2022-08-19T06:47:57;18.30;99.90
41922;DHT22;27609;51.002;5.354;2022-08-19T06:50:25;18.50;99.90
41922;DHT22;27609;51.002;5.354;2022-08-19T06:52:52;19.00;99.90
41922;DHT22;27609;51.002;5.354;2022-08-19T06:55:19;19.50;99.90
41922;DHT22;27609;51.002;5.354;2022-08-19T06:57:45;19.80;99.90
41922;DHT22;27609;51.002;5.354;2022-08-19T07:00:11;19.90;99.90
41922;DHT22;27609;51.002;5.354;2022-08-19T07:02:43;19.90;99.90
41922;DHT22;27609;51.002;5.354;2022-08-19T07:05:09;19.40;99.90
41922;DHT22;27609;51.002;5.354;2022-08-19T07:07:35;19.30;99.90
41922;DHT22;27609;51.002;5.354;2022-08-19T07:10:01;19.70;99.90
41922;DHT22;27609;51.002;5.354;2022-08-19T07:12:31;19.80;99.90
41922;DHT22;27609;51.002;5.354;2022-08-19T07:15:00;19.80;99.90
41922;DHT22;27609;51.002;5.354;2022-08-19T07:17:26;19.90;99.90
41922;DHT22;27609;51.002;5.354;2022-08-19T07:19:52;19.60;99.90
41922;DHT22;27609;51.002;5.354;2022-08-19T07:22:18;19.20;99.90
41922;DHT22;27609;51.002;5.354;2022-08-19T07:24:45;19.40;99.90
41922;DHT22;27609;51.002;5.354;2022-08-19T07:27:14;19.60;99.90
41922;DHT22;27609;51.002;5.354;2022-08-19T07:29:39;19.90;99.90
41922;DHT22;27609;51.002;5.354;2022-08-19T07:32:06;20.10;99.90
41922;DHT22;27609;51.002;5.354;2022-08-19T07:34:32;19.90;99.90
41922;DHT22;27609;51.002;5.354;2022-08-19T07:37:03;20.50;99.90
41922;DHT22;27609;51.002;5.354;2022-08-19T07:39:38;20.90;99.90
41922;DHT22;27609;51.002;5.354;2022-08-19T07:42:09;20.60;99.90
41922;DHT22;27609;51.002;5.354;2022-08-19T07:44:53;20.50;99.90
41922;DHT22;27609;51.002;5.354;2022-08-19T07:47:18;20.10;99.90
41922;DHT22;27609;51.002;5.354;2022-08-19T07:49:44;20.10;99.90
41922;DHT22;27609;51.002;5.354;2022-08-19T07:52:10;19.60;99.90
41922;DHT22;27609;51.002;5.354;2022-08-19T07:54:37;20.00;99.90
41922;DHT22;27609;51.002;5.354;2022-08-19T07:57:04;20.00;99.90
41922;DHT22;27609;51.002;5.354;2022-08-19T07:59:30;20.10;99.90
41922;DHT22;27609;51.002;5.354;2022-08-19T08:01:56;20.70;99.90
41922;DHT22;27609;51.002;5.354;2022-08-19T08:04:25;20.60;99.90
41922;DHT22;27609;51.002;5.354;2022-08-19T08:07:11;20.20;99.90
41922;DHT22;27609;51.002;5.354;2022-08-19T08:09:56;19.90;99.90
41922;DHT22;27609;51.002;5.354;2022-08-19T08:12:25;19.90;99.90
41922;DHT22;27609;51.002;5.354;2022-08-19T08:14:55;19.90;99.90
41922;DHT22;27609;51.002;5.354;2022-08-19T08:17:25;20.10;99.90
41922;DHT22;27609;51.002;5.354;2022-08-19T08:19:52;20.60;99.90
41922;DHT22;27609;51.002;5.354;2022-08-19T08:22:21;20.40;99.90
41922;DHT22;27609;51.002;5.354;2022-08-19T08:25:18;20.30;99.90
41922;DHT22;27609;51.002;5.354;2022-08-19T08:27:45;20.30;99.90
41922;DHT22;27609;51.002;5.354;2022-08-19T08:30:17;20.70;99.90
41922;DHT22;27609;51.002;5.354;2022-08-19T08:32:46;20.30;99.90
41922;DHT22;27609;51.002;5.354;2022-08-19T08:35:14;20.20;99.90
41922;DHT22;27609;51.002;5.354;2022-08-19T08:37:46;20.30;99.90
41922;DHT22;27609;51.002;5.354;2022-08-19T08:43:06;21.70;99.90
41922;DHT22;27609;51.002;5.354;2022-08-19T08:45:41;21.50;99.90
41922;DHT22;27609;51.002;5.354;2022-08-19T08:48:21;21.80;99.90
41922;DHT22;27609;51.002;5.354;2022-08-19T08:50:49;22.10;99.90
41922;DHT22;27609;51.002;5.354;2022-08-19T08:53:17;23.30;99.90
41922;DHT22;27609;51.002;5.354;2022-08-19T08:55:44;24.60;99.90
41922;DHT22;27609;51.002;5.354;2022-08-19T08:58:19;24.50;99.90
41922;DHT22;27609;51.002;5.354;2022-08-19T09:00:48;25.20;99.90
41922;DHT22;27609;51.002;5.354;2022-08-19T09:10:56;25.10;99.90
41922;DHT22;27609;51.002;5.354;2022-08-19T09:13:49;25.30;99.90
41922;DHT22;27609;51.002;5.354;2022-08-19T09:16:22;25.10;99.90
41922;DHT22;27609;51.002;5.354;2022-08-19T09:19:02;25.30;99.90
41922;DHT22;27609;51.002;5.354;2022-08-19T09:21:29;26.30;99.90
41922;DHT22;27609;51.002;5.354;2022-08-19T09:23:57;25.00;99.90
41922;DHT22;27609;51.002;5.354;2022-08-19T09:26:24;24.30;99.90
41922;DHT22;27609;51.002;5.354;2022-08-19T09:28:52;24.90;99.90
41922;DHT22;27609;51.002;5.354;2022-08-19T09:31:36;24.70;99.90
41922;DHT22;27609;51.002;5.354;2022-08-19T09:34:05;25.40;99.90
41922;DHT22;27609;51.002;5.354;2022-08-19T09:36:31;26.10;99.90
41922;DHT22;27609;51.002;5.354;2022-08-19T09:39:05;25.40;99.90
41922;DHT22;27609;51.002;5.354;2022-08-19T09:41:31;26.30;99.90
41922;DHT22;27609;51.002;5.354;2022-08-19T09:43:58;27.40;99.90
41922;DHT22;27609;51.002;5.354;2022-08-19T09:46:26;27.40;99.90
41922;DHT22;27609;51.002;5.354;2022-08-19T09:48:52;28.30;99.90
41922;DHT22;27609;51.002;5.354;2022-08-19T09:51:23;30.30;99.90
41922;DHT22;27609;51.002;5.354;2022-08-19T09:53:50;31.20;97.50
41922;DHT22;27609;51.002;5.354;2022-08-19T09:56:21;29.40;99.40
41922;DHT22;27609;51.002;5.354;2022-08-19T09:58:49;28.80;99.90
41922;DHT22;27609;51.002;5.354;2022-08-19T10:01:24;28.70;99.90
41922;DHT22;27609;51.002;5.354;2022-08-19T10:03:55;27.50;99.90
41922;DHT22;27609;51.002;5.354;2022-08-19T10:06:26;27.30;99.90
41922;DHT22;27609;51.002;5.354;2022-08-19T10:08:55;26.70;99.90
41922;DHT22;27609;51.002;5.354;2022-08-19T10:11:21;26.10;99.90
41922;DHT22;27609;51.002;5.354;2022-08-19T10:13:47;26.50;99.90
41922;DHT22;27609;51.002;5.354;2022-08-19T10:16:18;26.40;99.90
41922;DHT22;27609;51.002;5.354;2022-08-19T10:18:45;27.90;99.90
41922;DHT22;27609;51.002;5.354;2022-08-19T10:21:16;28.60;99.90
41922;DHT22;27609;51.002;5.354;2022-08-19T10:23:45;27.40;99.90
41922;DHT22;27609;51.002;5.354;2022-08-19T10:26:16;26.70;99.90
41922;DHT22;27609;51.002;5.354;2022-08-19T10:28:42;26.50;99.90
41922;DHT22;27609;51.002;5.354;2022-08-19T10:31:11;27.50;99.90
41922;DHT22;27609;51.002;5.354;2022-08-19T10:33:38;28.60;99.90
41922;DHT22;27609;51.002;5.354;2022-08-19T10:36:07;30.10;99.90
41922;DHT22;27609;51.002;5.354;2022-08-19T10:38:36;31.40;98.50
41922;DHT22;27609;51.002;5.354;2022-08-19T10:41:14;30.60;96.50
41922;DHT22;27609;51.002;5.354;2022-08-19T10:43:41;29.60;98.20
41922;DHT22;27609;51.002;5.354;2022-08-19T10:46:10;30.50;99.20
41922;DHT22;27609;51.002;5.354;2022-08-19T10:48:36;30.90;95.50
41922;DHT22;27609;51.002;5.354;2022-08-19T10:51:03;28.90;99.80
41922;DHT22;27609;51.002;5.354;2022-08-19T10:53:48;28.00;99.90
41922;DHT22;27609;51.002;5.354;2022-08-19T10:56:14;27.90;99.90
41922;DHT22;27609;51.002;5.354;2022-08-19T10:59:01;27.60;99.90
41922;DHT22;27609;51.002;5.354;2022-08-19T11:01:30;26.70;99.90
41922;DHT22;27609;51.002;5.354;2022-08-19T11:03:59;25.80;99.90
41922;DHT22;27609;51.002;5.354;2022-08-19T11:06:25;25.90;99.90
41922;DHT22;27609;51.002;5.354;2022-08-19T11:08:53;26.30;99.90
41922;DHT22;27609;51.002;5.354;2022-08-19T11:11:20;27.50;99.90
41922;DHT22;27609;51.002;5.354;2022-08-19T11:13:49;28.30;99.90
41922;DHT22;27609;51.002;5.354;2022-08-19T11:16:21;26.90;99.90
41922;DHT22;27609;51.002;5.354;2022-08-19T11:18:53;26.90;99.90
41922;DHT22;27609;51.002;5.354;2022-08-19T11:21:32;26.20;99.90
41922;DHT22;27609;51.002;5.354;2022-08-19T11:24:00;26.40;99.90
41922;DHT22;27609;51.002;5.354;2022-08-19T11:26:27;27.60;99.90
41922;DHT22;27609;51.002;5.354;2022-08-19T11:28:55;30.10;99.90
41922;DHT22;27609;51.002;5.354;2022-08-19T11:31:24;29.40;99.90
41922;DHT22;27609;51.002;5.354;2022-08-19T11:33:50;29.10;99.90
41922;DHT22;27609;51.002;5.354;2022-08-19T11:36:17;30.30;99.90
41922;DHT22;27609;51.002;5.354;2022-08-19T11:38:47;29.90;99.20
41922;DHT22;27609;51.002;5.354;2022-08-19T11:41:15;30.20;99.80
41922;DHT22;27609;51.002;5.354;2022-08-19T11:43:41;32.20;96.80
41922;DHT22;27609;51.002;5.354;2022-08-19T11:46:08;32.30;97.10
41922;DHT22;27609;51.002;5.354;2022-08-19T11:48:36;32.10;94.50
41922;DHT22;27609;51.002;5.354;2022-08-19T11:51:05;31.50;95.20
41922;DHT22;27609;51.002;5.354;2022-08-19T11:53:32;29.80;98.90
41922;DHT22;27609;51.002;5.354;2022-08-19T11:55:58;29.40;99.50
41922;DHT22;27609;51.002;5.354;2022-08-19T11:58:24;31.10;96.30
41922;DHT22;27609;51.002;5.354;2022-08-19T12:00:51;30.40;98.70
41922;DHT22;27609;51.002;5.354;2022-08-19T12:03:17;30.00;98.40
41922;DHT22;27609;51.002;5.354;2022-08-19T12:05:43;29.00;99.90
41922;DHT22;27609;51.002;5.354;2022-08-19T12:08:09;28.00;99.90
41922;DHT22;27609;51.002;5.354;2022-08-19T12:10:36;27.10;99.90
41922;DHT22;27609;51.002;5.354;2022-08-19T12:13:02;27.80;99.90
41922;DHT22;27609;51.002;5.354;2022-08-19T12:15:28;29.20;99.90
41922;DHT22;27609;51.002;5.354;2022-08-19T12:17:56;29.30;99.90
41922;DHT22;27609;51.002;5.354;2022-08-19T12:20:23;29.70;99.90
41922;DHT22;27609;51.002;5.354;2022-08-19T12:22:49;30.00;99.90
41922;DHT22;27609;51.002;5.354;2022-08-19T12:25:16;29.80;99.90
41922;DHT22;27609;51.002;5.354;2022-08-19T12:27:42;29.10;99.90
41922;DHT22;27609;51.002;5.354;2022-08-19T12:30:10;28.80;99.90
41922;DHT22;27609;51.002;5.354;2022-08-19T12:32:36;28.70;99.90
41922;DHT22;27609;51.002;5.354;2022-08-19T12:35:03;29.20;99.90
41922;DHT22;27609;51.002;5.354;2022-08-19T12:37:32;30.30;99.90
41922;DHT22;27609;51.002;5.354;2022-08-19T12:39:58;29.90;99.90
41922;DHT22;27609;51.002;5.354;2022-08-19T12:42:24;28.50;99.90
41922;DHT22;27609;51.002;5.354;2022-08-19T12:44:50;27.50;99.90
41922;DHT22;27609;51.002;5.354;2022-08-19T12:47:17;27.70;99.90
41922;DHT22;27609;51.002;5.354;2022-08-19T12:49:44;27.80;99.90
41922;DHT22;27609;51.002;5.354;2022-08-19T12:52:12;27.40;99.90
41922;DHT22;27609;51.002;5.354;2022-08-19T12:54:40;27.40;99.90
41922;DHT22;27609;51.002;5.354;2022-08-19T12:57:07;27.40;99.90
41922;DHT22;27609;51.002;5.354;2022-08-19T12:59:34;27.20;99.90
41922;DHT22;27609;51.002;5.354;2022-08-19T13:02:05;26.90;99.90
41922;DHT22;27609;51.002;5.354;2022-08-19T13:04:32;27.00;99.90
41922;DHT22;27609;51.002;5.354;2022-08-19T13:07:03;27.30;99.90
41922;DHT22;27609;51.002;5.354;2022-08-19T13:09:29;27.50;99.90
41922;DHT22;27609;51.002;5.354;2022-08-19T13:11:54;27.50;99.90
41922;DHT22;27609;51.002;5.354;2022-08-19T13:14:22;27.50;99.90
41922;DHT22;27609;51.002;5.354;2022-08-19T13:16:47;26.90;99.90
41922;DHT22;27609;51.002;5.354;2022-08-19T13:19:13;26.60;99.90
41922;DHT22;27609;51.002;5.354;2022-08-19T13:21:39;27.00;99.90
41922;DHT22;27609;51.002;5.354;2022-08-19T13:24:07;27.00;99.90
41922;DHT22;27609;51.002;5.354;2022-08-19T13:26:33;27.10;99.90
41922;DHT22;27609;51.002;5.354;2022-08-19T13:28:59;27.10;99.90
41922;DHT22;27609;51.002;5.354;2022-08-19T13:31:43;27.20;99.90
41922;DHT22;27609;51.002;5.354;2022-08-19T13:34:30;27.30;99.90
41922;DHT22;27609;51.002;5.354;2022-08-19T13:36:57;26.80;99.90
41922;DHT22;27609;51.002;5.354;2022-08-19T13:39:26;26.70;99.90
41922;DHT22;27609;51.002;5.354;2022-08-19T13:41:54;26.90;99.90
41922;DHT22;27609;51.002;5.354;2022-08-19T13:44:20;27.00;99.90
41922;DHT22;27609;51.002;5.354;2022-08-19T13:46:47;27.00;99.90
41922;DHT22;27609;51.002;5.354;2022-08-19T13:49:14;27.10;99.90
41922;DHT22;27609;51.002;5.354;2022-08-19T13:51:42;27.10;99.90
41922;DHT22;27609;51.002;5.354;2022-08-19T13:54:09;26.80;99.90
41922;DHT22;27609;51.002;5.354;2022-08-19T13:56:40;26.90;99.90
41922;DHT22;27609;51.002;5.354;2022-08-19T13:59:06;27.40;99.90
41922;DHT22;27609;51.002;5.354;2022-08-19T14:01:34;27.10;99.90
41922;DHT22;27609;51.002;5.354;2022-08-19T14:04:01;27.50;99.90
41922;DHT22;27609;51.002;5.354;2022-08-19T14:06:26;27.60;99.90
41922;DHT22;27609;51.002;5.354;2022-08-19T14:08:52;27.60;99.90
41922;DHT22;27609;51.002;5.354;2022-08-19T14:11:18;27.80;99.90
41922;DHT22;27609;51.002;5.354;2022-08-19T14:13:45;28.30;99.90
41922;DHT22;27609;51.002;5.354;2022-08-19T14:16:13;28.70;99.90
41922;DHT22;27609;51.002;5.354;2022-08-19T14:18:40;28.70;99.90
41922;DHT22;27609;51.002;5.354;2022-08-19T14:21:06;29.10;99.90
41922;DHT22;27609;51.002;5.354;2022-08-19T14:23:33;30.00;99.90
41922;DHT22;27609;51.002;5.354;2022-08-19T14:26:08;30.30;99.90
41922;DHT22;27609;51.002;5.354;2022-08-19T14:28:34;29.20;99.90
41922;DHT22;27609;51.002;5.354;2022-08-19T14:31:01;29.30;99.90
41922;DHT22;27609;51.002;5.354;2022-08-19T14:33:27;29.80;99.90
41922;DHT22;27609;51.002;5.354;2022-08-19T14:35:53;30.70;99.90
41922;DHT22;27609;51.002;5.354;2022-08-19T14:38:19;31.30;99.90
41922;DHT22;27609;51.002;5.354;2022-08-19T14:40:45;32.30;99.30
41922;DHT22;27609;51.002;5.354;2022-08-19T14:43:11;31.40;99.90
41922;DHT22;27609;51.002;5.354;2022-08-19T14:45:39;31.20;99.90
41922;DHT22;27609;51.002;5.354;2022-08-19T14:48:06;30.60;99.90
41922;DHT22;27609;51.002;5.354;2022-08-19T14:50:33;28.70;99.90
41922;DHT22;27609;51.002;5.354;2022-08-19T14:53:03;27.80;99.90
41922;DHT22;27609;51.002;5.354;2022-08-19T14:55:30;27.60;99.90
41922;DHT22;27609;51.002;5.354;2022-08-19T14:57:58;27.80;99.90
41922;DHT22;27609;51.002;5.354;2022-08-19T15:00:24;28.20;99.90
41922;DHT22;27609;51.002;5.354;2022-08-19T15:02:52;27.90;99.90
41922;DHT22;27609;51.002;5.354;2022-08-19T15:05:21;27.10;99.90
41922;DHT22;27609;51.002;5.354;2022-08-19T15:07:47;26.70;99.90
41922;DHT22;27609;51.002;5.354;2022-08-19T15:10:14;27.40;99.90
41922;DHT22;27609;51.002;5.354;2022-08-19T15:12:41;27.40;99.90
41922;DHT22;27609;51.002;5.354;2022-08-19T15:15:10;27.40;99.90
41922;DHT22;27609;51.002;5.354;2022-08-19T15:17:38;27.70;99.90
41922;DHT22;27609;51.002;5.354;2022-08-19T15:20:05;27.90;99.90
41922;DHT22;27609;51.002;5.354;2022-08-19T15:22:31;28.20;99.90
41922;DHT22;27609;51.002;5.354;2022-08-19T15:24:57;28.20;99.90
41922;DHT22;27609;51.002;5.354;2022-08-19T15:27:23;28.50;99.90
41922;DHT22;27609;51.002;5.354;2022-08-19T15:29:49;28.20;99.90
41922;DHT22;27609;51.002;5.354;2022-08-19T15:32:14;27.60;99.90
41922;DHT22;27609;51.002;5.354;2022-08-19T15:34:40;27.30;99.90
41922;DHT22;27609;51.002;5.354;2022-08-19T15:37:06;27.00;99.90
41922;DHT22;27609;51.002;5.354;2022-08-19T15:39:33;26.70;99.90
41922;DHT22;27609;51.002;5.354;2022-08-19T15:41:58;26.50;99.90
41922;DHT22;27609;51.002;5.354;2022-08-19T15:44:28;26.30;99.90
41922;DHT22;27609;51.002;5.354;2022-08-19T15:46:54;26.10;99.90
41922;DHT22;27609;51.002;5.354;2022-08-19T15:49:20;26.00;99.90
41922;DHT22;27609;51.002;5.354;2022-08-19T15:51:48;25.80;99.90
41922;DHT22;27609;51.002;5.354;2022-08-19T15:54:17;25.60;99.90
41922;DHT22;27609;51.002;5.354;2022-08-19T15:56:46;25.60;99.90
41922;DHT22;27609;51.002;5.354;2022-08-19T15:59:33;25.60;99.90